• Join FlightAware (Why Join?)
  • Login
  • US Flag 
12:06PM EDT


 

Airport Tracker/Info


-or-


 

Live Flight TrackerFlight Track Log ✈ HAL453 ✈ 07-May-2013 ✈ PHNL - RJFF / FUK

Flight Track Log - Related Links

Times and Time Zones

All times are in EDT time to prevent confusion due to time zone crossing. See the HAL453 flight status page for this flight to view local times or setup timezone preferences in your user account.

Time Position Orientation Groundspeed Altitude Reporting Facility
EDT Latitude Longitude Course Direction KTS MPH feet Rate Location/Type
07:33PM 21.2979 -158.4250 255° West  Level FlightAware Approximate
07:34PM 21.3184 -158.5387 290° West  Level FlightAware Approximate
07:34PM 21.2520 -158.2510 293° West 365 420 13,200  Level FlightAware
07:35PM 21.3599 -158.6581 293° West  Level FlightAware Approximate
07:35PM 21.2530 -158.3380 271° West 395 455 14,700  Level FlightAware
07:36PM 21.2750 -158.4190 286° West 405 466 16,500 1,620 Climbing FlightAware
07:37PM 21.3230 -158.5470 292° West 414 476 17,900 720 Climbing FlightAware
07:38PM 21.3480 -158.6120 292° West 414 476 17,900 2,220 Level FlightAware
07:38PM 21.3840 -158.7050 293° West 414 476 20,900 2,220 Climbing FlightAware
07:39PM 21.4090 -158.7700 292° West 414 476 20,900 2,160 Level FlightAware
07:40PM 21.4550 -158.8890 293° West 24,100 3,240 Climbing FlightAware
07:40PM 21.4833 -158.9500 293° West 460 529 25,200 1,740 Climbing Honolulu Center
07:41PM 21.5333 -159.0833 292° West 470 541 26,900 1,620 Climbing Honolulu Center
07:42PM 21.5667 -159.2167 285° West 480 552 28,500 1,860 Climbing Honolulu Center
07:43PM 21.6167 -159.3500 292° West 470 541 30,700 2,220 Climbing Honolulu Center
07:44PM 21.6667 -159.4667 295° West 450 518 33,000 1,620 Climbing Honolulu Center
07:45PM 21.7167 -159.6000 292° West 440 506 34,000 480 Climbing Honolulu Center
07:46PM 21.7667 -159.7167 295° West 440 506 34,000  Level Honolulu Center
07:47PM 21.8167 -159.8333 295° West 450 518 34,000  Level Honolulu Center
07:48PM 21.8500 -159.9667 285° West 440 506 34,000  Level Honolulu Center
07:49PM 21.9000 -160.0833 295° West 440 506 34,000  Level Honolulu Center
07:50PM 21.9500 -160.2167 292° West 440 506 34,000  Level Honolulu Center
07:51PM 22.0000 -160.3333 295° West 450 518 34,000  Level Honolulu Center
07:52PM 22.0333 -160.4333 290° West 440 506 34,000  Level Honolulu Center
07:53PM 22.0833 -160.5500 295° West 440 506 34,000  Level Honolulu Center
07:54PM 22.1167 -160.6833 285° West 440 506 34,000  Level Honolulu Center
07:55PM 22.1667 -160.8000 295° West 450 518 34,000  Level Honolulu Center
07:56PM 22.2167 -160.9333 292° West 450 518 34,000  Level Honolulu Center
07:57PM 22.2667 -161.0500 295° West 440 506 34,000  Level Honolulu Center
07:58PM 22.3000 -161.1833 285° West 440 506 34,000  Level Honolulu Center
07:59PM 22.3500 -161.3000 295° West 450 518 34,000  Level Honolulu Center
08:00PM 22.4000 -161.4333 292° West 450 518 34,000  Level Honolulu Center
08:01PM 22.4500 -161.5500 295° West 450 518 34,000  Level Honolulu Center
08:03PM 22.5364 -161.6757 290° West  Level FlightAware Approximate
08:10PM 22.8124 -162.5104 290° West  Level FlightAware Approximate
08:11PM 22.8515 -162.6300 290° West  Level FlightAware Approximate
08:12PM 22.8905 -162.7496 290° West  Level FlightAware Approximate
08:13PM 22.9293 -162.8692 289° West  Level FlightAware Approximate
08:14PM 22.9681 -162.9889 289° West  Level FlightAware Approximate
08:15PM 23.0069 -163.1087 289° West  Level FlightAware Approximate
08:16PM 23.0455 -163.2286 289° West  Level FlightAware Approximate
08:17PM 23.0840 -163.3485 289° West  Level FlightAware Approximate
08:18PM 23.1224 -163.4685 289° West  Level FlightAware Approximate
08:19PM 23.1608 -163.5886 289° West  Level FlightAware Approximate
08:20PM 23.1991 -163.7087 289° West  Level FlightAware Approximate
08:20PM 23.2750 -163.9760 299° West 449 517 34,000  Level ACARS Aircraft Datalink
08:20PM 23.2667 -163.8500 279° West 444 511 34,000  Level Oakland Oceanic (ODAPS)
08:21PM 23.2390 -163.8281 299° West  Level FlightAware Approximate
08:21PM 23.2667 -163.9667 279° West 444 511 34,000  Level Oakland Oceanic (ODAPS)
08:23PM 23.3246 -164.3546 278° West  Level FlightAware Approximate
08:23PM 23.3333 -164.3667 278° West 443 510 34,000  Level Oakland Oceanic (ODAPS)
08:24PM 23.3410 -164.4809 278° West  Level FlightAware Approximate
08:25PM 23.3573 -164.6072 278° West  Level FlightAware Approximate
08:26PM 23.3760 -164.6481 278° West 444 511 34,000  Level FlightAware Transoceanic
08:27PM 23.3960 -164.9006 278° West 444 511 34,000  Level FlightAware Transoceanic
08:28PM 23.4140 -165.0342 278° West 444 511 34,000  Level FlightAware Transoceanic
08:29PM 23.4319 -165.1678 278° West 444 511 34,000  Level FlightAware Transoceanic
08:30PM 23.4410 -165.1678 278° West 443 510 34,000  Level FlightAware Transoceanic
08:31PM 23.4585 -165.3015 278° West 443 510 34,000  Level FlightAware Transoceanic
08:32PM 23.4760 -165.4351 278° West 443 510 34,000  Level FlightAware Transoceanic
08:33PM 23.4933 -165.5688 278° West 443 510 34,000  Level FlightAware Transoceanic
08:34PM 23.5105 -165.7026 278° West 443 510 34,000  Level FlightAware Transoceanic
08:35PM 23.5276 -165.8364 278° West 443 510 34,000  Level FlightAware Transoceanic
08:36PM 23.5445 -165.9702 278° West 443 510 34,000  Level FlightAware Transoceanic
08:37PM 23.5614 -166.1041 278° West 443 510 34,000  Level FlightAware Transoceanic
08:37PM 23.5667 -166.2167 278° West 439 505 34,000  Level Oakland Oceanic (ODAPS)
08:38PM 23.5781 -166.2380 278° West 443 510 34,000  Level FlightAware Transoceanic
08:39PM 23.5948 -166.3719 278° West 443 510 34,000  Level FlightAware Transoceanic
08:40PM 23.6113 -166.5058 278° West 443 510 34,000  Level FlightAware Transoceanic
08:41PM 23.6277 -166.6398 278° West 443 510 34,000  Level FlightAware Transoceanic
08:42PM 23.6440 -166.7739 278° West 443 510 34,000  Level FlightAware Transoceanic
08:43PM 23.6602 -166.9079 277° West 443 510 34,000  Level FlightAware Transoceanic
08:44PM 23.6673 -167.0252 278° West 439 505 34,000  Level FlightAware Transoceanic
08:45PM 23.6836 -167.1601 278° West 439 505 34,000  Level FlightAware Transoceanic
08:46PM 23.6999 -167.2950 277° West 439 505 34,000  Level FlightAware Transoceanic
08:47PM 23.7160 -167.4300 277° West 439 505 34,000  Level FlightAware Transoceanic
08:48PM 23.7320 -167.5649 277° West 439 505 34,000  Level FlightAware Transoceanic
08:49PM 23.7479 -167.7000 277° West 439 505 34,000  Level FlightAware Transoceanic
08:50PM 23.7637 -167.8350 277° West 439 505 34,000  Level FlightAware Transoceanic
08:51PM 23.7793 -167.9701 277° West 439 505 34,000  Level FlightAware Transoceanic
08:51PM 23.8000 -168.0500 277° West 436 502 34,000  Level Oakland Oceanic (ODAPS)
08:52PM 23.7949 -168.1052 277° West 439 505 34,000  Level FlightAware Transoceanic
08:53PM 23.8103 -168.2403 277° West 439 505 34,000  Level FlightAware Transoceanic
08:54PM 23.8256 -168.3755 277° West 439 505 34,000  Level FlightAware Transoceanic
08:55PM 23.8408 -168.5107 277° West 439 505 34,000  Level FlightAware Transoceanic
08:56PM 23.8558 -168.6459 277° West 439 505 34,000  Level FlightAware Transoceanic
08:57PM 23.8829 -168.8293 276° West 436 502 34,000  Level FlightAware Transoceanic
08:58PM 23.8964 -168.9592 276° West 436 502 34,000  Level FlightAware Transoceanic
08:59PM 23.9097 -169.0892 276° West 436 502 34,000  Level FlightAware Transoceanic
09:00PM 23.9230 -169.2193 276° West 436 502 34,000  Level FlightAware Transoceanic
09:01PM 23.9361 -169.3493 276° West 436 502 34,000  Level FlightAware Transoceanic
09:02PM 23.9491 -169.4794 276° West 436 502 34,000  Level FlightAware Transoceanic
09:03PM 23.9620 -169.6095 276° West 436 502 34,000  Level FlightAware Transoceanic
09:04PM 23.9748 -169.7397 276° West 436 502 34,000  Level FlightAware Transoceanic
09:05PM 23.9874 -169.8698 276° West 436 502 34,000  Level FlightAware Transoceanic
09:05PM 23.9833 -169.8833 279° West 437 503 34,000  Level Oakland Oceanic (ODAPS)
09:06PM 24.0000 -170.0000 285° West 436 502 34,000  Level FlightAware Transoceanic
09:06PM 24.0140 -170.0760 284° West 440 506 34,000  Level ACARS Aircraft Datalink
09:06PM 24.0000 -170.0000 285° West 442 509 34,000  Level Oakland Oceanic (ODAPS)
09:07PM 24.0306 -170.1294 284° West 436 502 34,000  Level FlightAware Transoceanic
09:09PM 24.1005 -170.4488 284° West  Level FlightAware Approximate
09:10PM 24.1291 -170.5730 284° West  Level FlightAware Approximate
09:11PM 24.1518 -170.6476 284° West 437 503 34,000  Level FlightAware Transoceanic
09:12PM 24.1818 -170.7773 284° West 442 509 34,000  Level FlightAware Transoceanic
09:13PM 24.2118 -170.9070 284° West 442 509 34,000  Level FlightAware Transoceanic
09:14PM 24.2416 -171.0369 284° West 442 509 34,000  Level FlightAware Transoceanic
09:15PM 24.2713 -171.1667 284° West 442 509 34,000  Level FlightAware Transoceanic
09:16PM 24.3008 -171.2967 284° West 442 509 34,000  Level FlightAware Transoceanic
09:17PM 24.3303 -171.4267 284° West 442 509 34,000  Level FlightAware Transoceanic
09:18PM 24.3597 -171.5568 284° West 442 509 34,000  Level FlightAware Transoceanic
09:19PM 24.3890 -171.6869 284° West 442 509 34,000 1,380 Level FlightAware Transoceanic
09:19PM 24.3833 -171.6667 284° West 437 503 36,000  Climbing Oakland Oceanic (ODAPS)
09:20PM 24.4181 -171.8171 284° West 442 509 34,000 -1,260 Descending FlightAware Transoceanic
09:21PM 24.4471 -171.9473 284° West 442 509 34,000  Level FlightAware Transoceanic
09:22PM 24.4761 -172.0776 284° West 442 509 34,000  Level FlightAware Transoceanic
09:23PM 24.5049 -172.2080 284° West 442 509 34,000  Level FlightAware Transoceanic
09:24PM 24.5336 -172.3384 284° West 442 509 34,000 960 Level FlightAware Transoceanic
09:25PM 24.5545 -172.4383 284° West 437 503 36,000 960 Climbing FlightAware Transoceanic
09:26PM 24.5826 -172.5671 283° West 437 503 36,000  Level FlightAware Transoceanic
09:27PM 24.6107 -172.6959 283° West 437 503 36,000  Level FlightAware Transoceanic
09:28PM 24.6386 -172.8249 283° West 437 503 36,000  Level FlightAware Transoceanic
09:29PM 24.6664 -172.9538 283° West 437 503 36,000  Level FlightAware Transoceanic
09:30PM 24.6941 -173.0829 283° West 437 503 36,000  Level FlightAware Transoceanic
09:31PM 24.7217 -173.2120 283° West 437 503 36,000  Level FlightAware Transoceanic
09:32PM 24.7492 -173.3411 283° West 437 503 36,000  Level FlightAware Transoceanic
09:33PM 24.7766 -173.4703 283° West 437 503 36,000  Level FlightAware Transoceanic
09:33PM 24.7667 -173.4500 283° West 438 504 36,000  Level Oakland Oceanic (ODAPS)
09:34PM 24.8038 -173.5996 283° West 437 503 36,000  Level FlightAware Transoceanic
09:35PM 24.8310 -173.7289 283° West 437 503 36,000  Level FlightAware Transoceanic
09:36PM 24.8580 -173.8583 283° West 437 503 36,000  Level FlightAware Transoceanic
09:37PM 24.8849 -173.9877 283° West 437 503 36,000  Level FlightAware Transoceanic
09:38PM 24.9118 -174.1172 283° West 437 503 36,000  Level FlightAware Transoceanic
09:39PM 24.9298 -174.2288 283° West 438 504 36,000  Level FlightAware Transoceanic
09:40PM 24.9566 -174.3588 283° West 438 504 36,000  Level FlightAware Transoceanic
09:41PM 24.9833 -174.4888 283° West 438 504 36,000  Level FlightAware Transoceanic
09:42PM 25.0099 -174.6190 283° West 438 504 36,000  Level FlightAware Transoceanic
09:43PM 25.0364 -174.7491 283° West 438 504 36,000  Level FlightAware Transoceanic
09:44PM 25.0627 -174.8793 283° West 438 504 36,000  Level FlightAware Transoceanic
09:45PM 25.0890 -175.0096 283° West 438 504 36,000  Level FlightAware Transoceanic
09:46PM 25.1151 -175.1400 282° West 438 504 36,000  Level FlightAware Transoceanic
09:47PM 25.1411 -175.2703 282° West 438 504 36,000  Level FlightAware Transoceanic
09:47PM 25.1500 -175.2500 282° West 440 506 36,000  Level Oakland Oceanic (ODAPS)
09:48PM 25.1670 -175.4008 282° West 438 504 36,000  Level FlightAware Transoceanic
09:49PM 25.1928 -175.5313 282° West 438 504 36,000  Level FlightAware Transoceanic
09:50PM 25.2184 -175.6618 282° West 438 504 36,000  Level FlightAware Transoceanic
09:51PM 25.2440 -175.7925 282° West 438 504 36,000  Level FlightAware Transoceanic
09:52PM 25.2694 -175.9231 282° West 438 504 36,000  Level FlightAware Transoceanic
09:53PM 25.3023 -176.0369 282° West 440 506 36,000  Level FlightAware Transoceanic
09:54PM 25.3272 -176.1683 282° West 440 506 36,000  Level FlightAware Transoceanic
09:55PM 25.3521 -176.2997 282° West 440 506 36,000  Level FlightAware Transoceanic
09:56PM 25.3768 -176.4311 282° West 440 506 36,000  Level FlightAware Transoceanic
09:57PM 25.4014 -176.5626 282° West 440 506 36,000  Level FlightAware Transoceanic
09:58PM 25.4259 -176.6942 282° West 440 506 36,000  Level FlightAware Transoceanic
09:59PM 25.4503 -176.8258 282° West 440 506 36,000  Level FlightAware Transoceanic
10:00PM 25.4746 -176.9574 282° West 440 506 36,000  Level FlightAware Transoceanic
10:00PM 25.5000 -177.1000 281° West 446 513 36,000  Level Oakland Oceanic (ODAPS)
10:01PM 25.4988 -177.0892 281° West 440 506 36,000  Level FlightAware Transoceanic
10:02PM 25.5228 -177.2209 281° West 440 506 36,000  Level FlightAware Transoceanic
10:03PM 25.5467 -177.3528 281° West 440 506 36,000  Level FlightAware Transoceanic
10:04PM 25.5705 -177.4846 281° West 440 506 36,000  Level FlightAware Transoceanic
10:05PM 25.5942 -177.6166 281° West 440 506 36,000  Level FlightAware Transoceanic
10:06PM 25.6177 -177.7485 281° West 440 506 36,000  Level FlightAware Transoceanic
10:07PM 25.6487 -177.9261 281° West 446 513 36,000  Level FlightAware Transoceanic
10:08PM 25.6730 -178.0639 281° West 446 513 36,000  Level FlightAware Transoceanic
10:09PM 25.6972 -178.2019 281° West 446 513 36,000  Level FlightAware Transoceanic
10:10PM 25.7213 -178.3399 281° West 446 513 36,000  Level FlightAware Transoceanic
10:11PM 25.7453 -178.4779 281° West 446 513 36,000  Level FlightAware Transoceanic
10:12PM 25.7691 -178.6160 281° West 446 513 36,000  Level FlightAware Transoceanic
10:13PM 25.7927 -178.7542 281° West 446 513 36,000  Level FlightAware Transoceanic
10:14PM 25.8163 -178.8924 281° West 446 513 36,000  Level FlightAware Transoceanic
10:14PM 25.8333 -178.9833 281° West 444 511 36,000  Level Oakland Oceanic (ODAPS)
10:15PM 25.8397 -179.0306 281° West 446 513 36,000  Level FlightAware Transoceanic
10:16PM 25.8630 -179.1689 281° West 446 513 36,000  Level FlightAware Transoceanic
10:17PM 25.8862 -179.3073 281° West 446 513 36,000  Level FlightAware Transoceanic
10:18PM 25.9092 -179.4458 280° West 446 513 36,000  Level FlightAware Transoceanic
10:19PM 25.9321 -179.5842 280° West 446 513 36,000  Level FlightAware Transoceanic
10:20PM 25.9549 -179.7228 280° West 446 513 36,000  Level FlightAware Transoceanic
10:21PM 25.9766 -179.8546 280° West 444 511 36,000  Level FlightAware Transoceanic
10:22PM 26.0000 -180.0000 291° West 444 511 36,000  Level FlightAware Transoceanic
10:22PM 26.0180 -179.9950 291° West 444 511 36,000  Level ACARS Aircraft Datalink
10:23PM 26.0434 179.8737 291° West 444 511 36,000  Level FlightAware Transoceanic
10:23PM 26.0000 180.0000 291° West 436 502 36,000  Level Oakland Oceanic (ODAPS)
10:25PM 26.1425 179.6393 291° West  Level FlightAware Approximate
10:26PM 26.1838 179.5172 291° West  Level FlightAware Approximate
10:27PM 26.2250 179.3951 291° West  Level FlightAware Approximate
10:28PM 26.2661 179.2728 291° West  Level FlightAware Approximate
10:28PM 26.2833 179.2000 291° West 425 489 36,000  Level Oakland Oceanic (ODAPS)
10:29PM 26.3016 179.1136 291° West 436 502 36,000  Level FlightAware Transoceanic
10:30PM 26.3442 178.9866 291° West 436 502 36,000  Level FlightAware Transoceanic
10:31PM 26.3868 178.8595 290° West 436 502 36,000  Level FlightAware Transoceanic
10:32PM 26.4292 178.7323 290° West 436 502 36,000  Level FlightAware Transoceanic
10:33PM 26.4715 178.6051 290° West 436 502 36,000  Level FlightAware Transoceanic
10:34PM 26.5137 178.4777 290° West 436 502 36,000  Level FlightAware Transoceanic
10:35PM 26.5696 178.3378 290° West 425 489 36,000  Level FlightAware Transoceanic
10:36PM 26.6101 178.2143 290° West 425 489 36,000  Level FlightAware Transoceanic
10:37PM 26.6504 178.0907 290° West 425 489 36,000  Level FlightAware Transoceanic
10:38PM 26.6907 177.9669 290° West 425 489 36,000  Level FlightAware Transoceanic
10:39PM 26.7309 177.8432 290° West 425 489 36,000  Level FlightAware Transoceanic
10:40PM 26.7709 177.7193 290° West 425 489 36,000  Level FlightAware Transoceanic
10:41PM 26.8109 177.5953 290° West 425 489 36,000  Level FlightAware Transoceanic
10:42PM 26.8507 177.4713 290° West 425 489 36,000  Level FlightAware Transoceanic
10:42PM 26.8500 177.4333 290° West 427 491 36,000  Level Oakland Oceanic (ODAPS)
10:43PM 26.8904 177.3472 290° West 425 489 36,000  Level FlightAware Transoceanic
10:44PM 26.9300 177.2229 290° West 425 489 36,000  Level FlightAware Transoceanic
10:45PM 26.9695 177.0986 290° West 425 489 36,000  Level FlightAware Transoceanic
10:46PM 27.0089 176.9742 290° West 425 489 36,000  Level FlightAware Transoceanic
10:47PM 27.0482 176.8497 289° West 425 489 36,000  Level FlightAware Transoceanic
10:48PM 27.0874 176.7252 289° West 425 489 36,000  Level FlightAware Transoceanic
10:49PM 27.1256 176.5670 289° West 427 491 36,000  Level FlightAware Transoceanic
10:50PM 27.1646 176.4429 289° West 427 491 36,000  Level FlightAware Transoceanic
10:51PM 27.2034 176.3187 289° West 427 491 36,000  Level FlightAware Transoceanic
10:52PM 27.2421 176.1944 289° West 427 491 36,000  Level FlightAware Transoceanic
10:53PM 27.2807 176.0700 289° West 427 491 36,000  Level FlightAware Transoceanic
10:54PM 27.3192 175.9456 289° West 427 491 36,000  Level FlightAware Transoceanic
10:55PM 27.3576 175.8210 289° West 427 491 36,000  Level FlightAware Transoceanic
10:56PM 27.3959 175.6964 289° West 427 491 36,000  Level FlightAware Transoceanic
10:56PM 27.4000 175.6667 289° West 426 490 36,000  Level Oakland Oceanic (ODAPS)
10:57PM 27.4341 175.5717 289° West 427 491 36,000  Level FlightAware Transoceanic
10:58PM 27.4721 175.4469 289° West 427 491 36,000  Level FlightAware Transoceanic
10:59PM 27.5101 175.3220 289° West 427 491 36,000  Level FlightAware Transoceanic
11:00PM 27.5479 175.1970 289° West 427 491 36,000  Level FlightAware Transoceanic
11:01PM 27.5856 175.0720 289° West 427 491 36,000  Level FlightAware Transoceanic
11:02PM 27.6267 174.9210 289° West 426 490 36,000  Level FlightAware Transoceanic
11:03PM 27.6641 174.7964 289° West 426 490 36,000  Level FlightAware Transoceanic
11:04PM 27.7013 174.6717 289° West 426 490 36,000  Level FlightAware Transoceanic
11:05PM 27.7385 174.5470 289° West 426 490 36,000  Level FlightAware Transoceanic
11:06PM 27.7756 174.4221 289° West 426 490 36,000  Level FlightAware Transoceanic
11:07PM 27.8125 174.2972 288° West 426 490 36,000  Level FlightAware Transoceanic
11:08PM 27.8493 174.1722 288° West 426 490 36,000  Level FlightAware Transoceanic
11:09PM 27.8860 174.0471 288° West 426 490 36,000  Level FlightAware Transoceanic
11:10PM 27.9226 173.9220 288° West 426 490 36,000  Level FlightAware Transoceanic
11:10PM 27.9333 173.9000 288° West 432 497 36,000  Level Oakland Oceanic (ODAPS)
11:11PM 27.9591 173.7967 288° West 426 490 36,000  Level FlightAware Transoceanic
11:12PM 27.9955 173.6714 288° West 426 490 36,000  Level FlightAware Transoceanic
11:13PM 28.0318 173.5459 288° West 426 490 36,000  Level FlightAware Transoceanic
11:14PM 28.0679 173.4204 288° West 426 490 36,000  Level FlightAware Transoceanic
11:15PM 28.1040 173.2948 288° West 426 490 36,000  Level FlightAware Transoceanic
11:16PM 28.1555 173.1263 288° West 432 497 36,000  Level FlightAware Transoceanic
11:17PM 28.1921 172.9971 288° West 432 497 36,000  Level FlightAware Transoceanic
11:18PM 28.2286 172.8677 288° West 432 497 36,000  Level FlightAware Transoceanic
11:19PM 28.2650 172.7383 288° West 432 497 36,000  Level FlightAware Transoceanic
11:20PM 28.3012 172.6088 288° West 432 497 36,000  Level FlightAware Transoceanic
11:21PM 28.3373 172.4792 288° West 432 497 36,000  Level FlightAware Transoceanic
11:22PM 28.3733 172.3495 287° West 432 497 36,000  Level FlightAware Transoceanic
11:23PM 28.4092 172.2197 287° West 432 497 36,000  Level FlightAware Transoceanic
11:24PM 28.4450 172.0898 287° West 432 497 36,000  Level FlightAware Transoceanic
11:24PM 28.4500 172.0667 287° West 428 493 36,000  Level Oakland Oceanic (ODAPS)
11:25PM 28.4806 171.9599 287° West 432 497 36,000  Level FlightAware Transoceanic
11:26PM 28.5161 171.8298 287° West 432 497 36,000  Level FlightAware Transoceanic
11:27PM 28.5515 171.6997 287° West 432 497 36,000  Level FlightAware Transoceanic
11:28PM 28.5867 171.5694 287° West 432 497 36,000  Level FlightAware Transoceanic
11:29PM 28.6218 171.4391 287° West 432 497 36,000  Level FlightAware Transoceanic
11:30PM 28.6599 171.2942 287° West 428 493 36,000  Level FlightAware Transoceanic
11:31PM 28.6945 171.1652 287° West 428 493 36,000  Level FlightAware Transoceanic
11:32PM 28.7289 171.0361 287° West 428 493 36,000  Level FlightAware Transoceanic
11:33PM 28.7632 170.9068 287° West 428 493 36,000  Level FlightAware Transoceanic
11:34PM 28.7974 170.7776 287° West 428 493 36,000  Level FlightAware Transoceanic
11:35PM 28.8315 170.6482 287° West 428 493 36,000  Level FlightAware Transoceanic
11:36PM 28.8654 170.5187 287° West 428 493 36,000  Level FlightAware Transoceanic
11:37PM 28.8993 170.3891 287° West 428 493 36,000  Level FlightAware Transoceanic
11:38PM 28.9330 170.2595 287° West 428 493 36,000  Level FlightAware Transoceanic
11:38PM 28.9167 170.3000 288° West 416 479 36,000  Level Oakland Oceanic (ODAPS)
11:39PM 28.9666 170.1298 286° West 428 493 36,000  Level FlightAware Transoceanic
11:40PM 29.0000 170.0000 284° West 428 493 36,000  Level FlightAware Transoceanic
11:40PM 29.0210 169.9730 284° West 418 481 36,000  Level ACARS Aircraft Datalink
11:40PM 29.0000 170.0000 284° West 413 475 36,000  Level Oakland Oceanic (ODAPS)
11:41PM 29.0287 169.8697 284° West 428 493 36,000  Level FlightAware Transoceanic
11:44PM 29.1140 169.4784 284° West 416 479 36,000  Level FlightAware Transoceanic
11:45PM 29.1422 169.3478 284° West 416 479 36,000  Level FlightAware Transoceanic
11:46PM 29.1659 169.2373 284° West 413 475 36,000  Level FlightAware Transoceanic
11:47PM 29.1932 169.1099 284° West 413 475 36,000  Level FlightAware Transoceanic
11:48PM 29.2203 168.9825 284° West 413 475 36,000  Level FlightAware Transoceanic
11:49PM 29.2473 168.8550 284° West 413 475 36,000  Level FlightAware Transoceanic
11:50PM 29.2742 168.7275 284° West 413 475 36,000  Level FlightAware Transoceanic
11:51PM 29.3009 168.5998 283° West 413 475 36,000  Level FlightAware Transoceanic
11:51PM 29.3167 168.5333 283° West 412 474 36,000  Level Oakland Oceanic (ODAPS)
11:52PM 29.3275 168.4722 283° West 413 475 36,000  Level FlightAware Transoceanic
11:53PM 29.3540 168.3444 283° West 413 475 36,000  Level FlightAware Transoceanic
11:54PM 29.3804 168.2166 283° West 413 475 36,000  Level FlightAware Transoceanic
11:55PM 29.4067 168.0887 283° West 413 475 36,000  Level FlightAware Transoceanic
11:56PM 29.4328 167.9607 283° West 413 475 36,000  Level FlightAware Transoceanic
11:57PM 29.4503 167.8827 283° West 412 474 36,000  Level FlightAware Transoceanic
11:58PM 29.4766 167.7523 283° West 412 474 36,000  Level FlightAware Transoceanic
11:59PM 29.5028 167.6219 283° West 412 474 36,000  Level FlightAware Transoceanic
12:00AM 29.5289 167.4915 283° West 412 474 36,000  Level FlightAware Transoceanic
12:01AM 29.5548 167.3609 283° West 412 474 36,000  Level FlightAware Transoceanic
12:02AM 29.5807 167.2303 283° West 412 474 36,000  Level FlightAware Transoceanic
12:03AM 29.6064 167.0996 283° West 412 474 36,000  Level FlightAware Transoceanic
12:04AM 29.6319 166.9689 283° West 412 474 36,000  Level FlightAware Transoceanic
12:05AM 29.6574 166.8381 283° West 412 474 36,000 540 Level FlightAware Transoceanic
12:05AM 29.6667 166.7500 283° West 406 467 37,000  Climbing Oakland Oceanic (ODAPS)
12:06AM 29.6827 166.7072 283° West 412 474 36,000 -780 Descending FlightAware Transoceanic
12:07AM 29.7079 166.5763 282° West 412 474 36,000  Level FlightAware Transoceanic
12:08AM 29.7329 166.4453 282° West 412 474 36,000  Level FlightAware Transoceanic
12:09AM 29.7579 166.3142 282° West 412 474 36,000  Level FlightAware Transoceanic
12:10AM 29.7827 166.1831 282° West 412 474 36,000 480 Level FlightAware Transoceanic
12:11AM 29.7976 166.0783 282° West 406 467 37,000 480 Climbing FlightAware Transoceanic
12:12AM 29.8234 165.9438 282° West 406 467 37,000  Level FlightAware Transoceanic
12:13AM 29.8490 165.8091 282° West 406 467 37,000  Level FlightAware Transoceanic
12:14AM 29.8745 165.6745 282° West 406 467 37,000  Level FlightAware Transoceanic
12:15AM 29.8999 165.5397 282° West 406 467 37,000  Level FlightAware Transoceanic
12:16AM 29.9251 165.4049 282° West 406 467 37,000  Level FlightAware Transoceanic
12:17AM 29.9502 165.2700 282° West 406 467 37,000  Level FlightAware Transoceanic
12:18AM 29.9752 165.1350 282° West 406 467 37,000  Level FlightAware Transoceanic
12:19AM 30.0000 165.0000 296° West 406 467 37,000  Level FlightAware Transoceanic
12:20AM 30.0523 164.8775 296° West 406 467 37,000  Level FlightAware Transoceanic
12:20AM 30.0310 164.9800 296° West 420 483 37,000  Level ACARS Aircraft Datalink
12:23AM 30.1686 164.6064 293° West  Level FlightAware Approximate
12:24AM 30.2142 164.4816 293° West  Level FlightAware Approximate
12:25AM 30.2610 164.3572 296° West  Level FlightAware Approximate
12:26AM 30.3122 164.2353 296° West  Level FlightAware Approximate
12:27AM 30.3633 164.1132 296° West  Level FlightAware Approximate
12:28AM 30.4144 163.9910 296° West  Level FlightAware Approximate
12:29AM 30.4652 163.8687 296° West  Level FlightAware Approximate
12:30AM 30.5160 163.7463 296° West  Level FlightAware Approximate
12:31AM 30.5667 163.6237 296° West  Level FlightAware Approximate
12:32AM 30.6172 163.5010 296° West  Level FlightAware Approximate
12:33AM 30.6677 163.3782 296° West  Level FlightAware Approximate
12:34AM 30.7180 163.2552 295° West  Level FlightAware Approximate
12:35AM 30.7682 163.1322 295° West  Level FlightAware Approximate
12:36AM 30.8182 163.0090 295° West  Level FlightAware Approximate
12:37AM 30.8682 162.8856 295° West  Level FlightAware Approximate
12:38AM 30.9181 162.7622 295° West  Level FlightAware Approximate
12:39AM 30.9678 162.6386 295° West  Level FlightAware Approximate
12:40AM 31.0174 162.5148 295° West  Level FlightAware Approximate
12:41AM 31.0673 162.3912 295° West  Level FlightAware Approximate
12:42AM 31.1172 162.2675 295° West  Level FlightAware Approximate
12:43AM 31.1669 162.1436 295° West  Level FlightAware Approximate
12:44AM 31.2164 162.0196 295° West  Level FlightAware Approximate
12:45AM 31.2659 161.8955 295° West  Level FlightAware Approximate
12:46AM 31.3152 161.7712 295° West  Level FlightAware Approximate
12:47AM 31.3645 161.6468 295° West  Level FlightAware Approximate
12:48AM 31.4136 161.5223 295° West  Level FlightAware Approximate
12:49AM 31.4625 161.3977 295° West  Level FlightAware Approximate
12:50AM 31.5114 161.2729 295° West  Level FlightAware Approximate
12:51AM 31.5601 161.1480 295° West  Level FlightAware Approximate
12:52AM 31.6087 161.0229 295° West  Level FlightAware Approximate
12:53AM 31.6572 160.8978 294° West  Level FlightAware Approximate
12:54AM 31.7056 160.7725 294° West  Level FlightAware Approximate
12:55AM 31.7539 160.6470 294° West  Level FlightAware Approximate
12:56AM 31.8020 160.5215 294° West  Level FlightAware Approximate
12:57AM 31.8500 160.3958 294° West  Level FlightAware Approximate
12:58AM 31.8979 160.2699 294° West  Level FlightAware Approximate
12:59AM 31.9456 160.1440 294° West  Level FlightAware Approximate
01:00AM 31.9932 160.0179 294° West  Level FlightAware Approximate
01:01AM 32.0377 159.8902 292° West  Level FlightAware Approximate
01:02AM 32.0816 159.7621 292° West  Level FlightAware Approximate
01:03AM 32.1253 159.6338 292° West  Level FlightAware Approximate
01:04AM 32.1689 159.5055 292° West  Level FlightAware Approximate
01:05AM 32.2123 159.3770 292° West  Level FlightAware Approximate
01:06AM 32.2557 159.2484 292° West  Level FlightAware Approximate
01:07AM 32.2994 159.1181 292° West  Level FlightAware Approximate
01:08AM 32.3430 158.9876 291° West  Level FlightAware Approximate
01:09AM 32.3863 158.8569 291° West  Level FlightAware Approximate
01:10AM 32.4295 158.7261 291° West  Level FlightAware Approximate
01:11AM 32.4726 158.5952 291° West  Level FlightAware Approximate
01:12AM 32.5155 158.4641 291° West  Level FlightAware Approximate
01:13AM 32.5583 158.3329 291° West  Level FlightAware Approximate
01:14AM 32.6010 158.2016 291° West  Level FlightAware Approximate
01:15AM 32.6435 158.0702 291° West  Level FlightAware Approximate
01:16AM 32.6869 157.9391 292° West  Level FlightAware Approximate
01:17AM 32.7303 157.8080 292° West  Level FlightAware Approximate
01:18AM 32.7736 157.6767 291° West  Level FlightAware Approximate
01:19AM 32.8167 157.5453 291° West  Level FlightAware Approximate
01:20AM 32.8597 157.4138 291° West  Level FlightAware Approximate
01:21AM 32.9026 157.2821 291° West  Level FlightAware Approximate
01:22AM 32.9453 157.1503 291° West  Level FlightAware Approximate
01:23AM 32.9879 157.0184 291° West  Level FlightAware Approximate
01:24AM 33.0304 156.8864 291° West  Level FlightAware Approximate
01:25AM 33.0727 156.7543 291° West  Level FlightAware Approximate
01:26AM 33.1149 156.6220 291° West  Level FlightAware Approximate
01:27AM 33.1569 156.4896 291° West  Level FlightAware Approximate
01:28AM 33.1988 156.3570 291° West  Level FlightAware Approximate
01:29AM 33.2406 156.2244 291° West  Level FlightAware Approximate
01:30AM 33.2822 156.0916 291° West  Level FlightAware Approximate
01:31AM 33.3237 155.9586 291° West  Level FlightAware Approximate
01:32AM 33.3650 155.8256 290° West  Level FlightAware Approximate
01:33AM 33.4062 155.6924 290° West  Level FlightAware Approximate
01:34AM 33.4472 155.5591 290° West  Level FlightAware Approximate
01:35AM 33.4881 155.4257 290° West  Level FlightAware Approximate
01:36AM 33.5289 155.2922 290° West  Level FlightAware Approximate
01:37AM 33.5695 155.1585 290° West  Level FlightAware Approximate
01:38AM 33.6100 155.0247 290° West  Level FlightAware Approximate
01:39AM 33.6503 154.8908 290° West  Level FlightAware Approximate
01:40AM 33.6905 154.7567 290° West  Level FlightAware Approximate
01:41AM 33.7305 154.6225 290° West  Level FlightAware Approximate
01:42AM 33.7704 154.4882 290° West  Level FlightAware Approximate
01:43AM 33.8102 154.3538 290° West  Level FlightAware Approximate
01:44AM 33.8498 154.2193 290° West  Level FlightAware Approximate
01:45AM 33.8892 154.0846 289° West  Level FlightAware Approximate
01:46AM 33.9286 153.9498 289° West  Level FlightAware Approximate
01:47AM 33.9677 153.8149 289° West  Level FlightAware Approximate
01:48AM 34.0067 153.6798 289° West  Level FlightAware Approximate
01:49AM 34.0456 153.5446 289° West  Level FlightAware Approximate
01:50AM 34.0843 153.4093 289° West  Level FlightAware Approximate
01:51AM 34.1229 153.2739 289° West  Level FlightAware Approximate
01:52AM 34.1613 153.1384 289° West  Level FlightAware Approximate
01:53AM 34.1996 153.0027 289° West  Level FlightAware Approximate
01:54AM 34.2377 152.8669 289° West  Level FlightAware Approximate
01:55AM 34.2757 152.7310 289° West  Level FlightAware Approximate
01:56AM 34.3135 152.5950 289° West  Level FlightAware Approximate
01:57AM 34.3512 152.4588 289° West  Level FlightAware Approximate
01:58AM 34.3887 152.3225 288° West  Level FlightAware Approximate
01:59AM 34.4261 152.1861 288° West  Level FlightAware Approximate
02:00AM 34.4633 152.0496 288° West  Level FlightAware Approximate
02:01AM 34.5004 151.9130 288° West  Level FlightAware Approximate
02:02AM 34.5373 151.7762 288° West  Level FlightAware Approximate
02:03AM 34.5740 151.6393 288° West  Level FlightAware Approximate
02:04AM 34.6106 151.5023 288° West  Level FlightAware Approximate
02:05AM 34.6471 151.3652 288° West  Level FlightAware Approximate
02:06AM 34.6834 151.2279 288° West  Level FlightAware Approximate
02:07AM 34.7196 151.0906 288° West  Level FlightAware Approximate
02:08AM 34.7556 150.9531 288° West  Level FlightAware Approximate
02:09AM 34.7914 150.8155 288° West  Level FlightAware Approximate
02:10AM 34.8271 150.6777 288° West  Level FlightAware Approximate
02:11AM 34.8626 150.5399 287° West  Level FlightAware Approximate
02:12AM 34.8980 150.4019 287° West  Level FlightAware Approximate
02:13AM 34.9332 150.2639 287° West  Level FlightAware Approximate
02:14AM 34.9683 150.1257 287° West  Level FlightAware Approximate
02:15AM 35.0013 149.9868 277° West  Level FlightAware Approximate
02:16AM 35.0149 149.8430 277° West  Level FlightAware Approximate
02:17AM 35.0284 149.6992 277° West  Level FlightAware Approximate
02:18AM 35.0417 149.5553 276° West  Level FlightAware Approximate
02:19AM 35.0549 149.4113 276° West  Level FlightAware Approximate
02:20AM 35.0679 149.2673 276° West  Level FlightAware Approximate
02:21AM 35.0807 149.1233 276° West  Level FlightAware Approximate
02:22AM 35.0933 148.9792 276° West  Level FlightAware Approximate
02:23AM 35.1058 148.8351 276° West  Level FlightAware Approximate
02:23AM 35.0070 150.0200 281° West 444 511 39,000  Level ACARS Aircraft Datalink
02:24AM 35.1181 148.6909 276° West  Level FlightAware Approximate
02:25AM 35.1302 148.5467 276° West  Level FlightAware Approximate
02:26AM 35.1422 148.4024 276° West  Level FlightAware Approximate
02:27AM 35.1539 148.2581 276° West  Level FlightAware Approximate
02:28AM 35.1655 148.1138 276° West  Level FlightAware Approximate
02:29AM 35.1770 147.9694 276° West  Level FlightAware Approximate
02:30AM 35.1883 147.8249 275° West  Level FlightAware Approximate
02:31AM 35.1993 147.6805 275° West  Level FlightAware Approximate
02:32AM 35.2103 147.5359 275° West  Level FlightAware Approximate
02:33AM 35.2210 147.3914 275° West  Level FlightAware Approximate
02:34AM 35.2316 147.2468 275° West  Level FlightAware Approximate
02:35AM 35.2420 147.1022 275° West  Level FlightAware Approximate
02:36AM 35.2523 146.9576 275° West  Level FlightAware Approximate
02:37AM 35.2623 146.8129 275° West  Level FlightAware Approximate
02:38AM 35.2722 146.6681 275° West  Level FlightAware Approximate
02:39AM 35.2819 146.5234 275° West  Level FlightAware Approximate
02:40AM 35.2915 146.3786 275° West  Level FlightAware Approximate
02:41AM 35.3009 146.2337 275° West  Level FlightAware Approximate
02:42AM 35.3101 146.0889 274° West  Level FlightAware Approximate
02:43AM 35.3225 145.9445 280° West  Level FlightAware Approximate
02:44AM 35.3437 145.8015 280° West  Level FlightAware Approximate
02:45AM 35.3648 145.6584 280° West  Level FlightAware Approximate
02:46AM 35.3857 145.5153 280° West  Level FlightAware Approximate
02:47AM 35.4070 145.3722 281° West  Level FlightAware Approximate
02:48AM 35.4294 145.2293 281° West  Level FlightAware Approximate
02:49AM 35.4517 145.0864 281° West  Level FlightAware Approximate
02:49AM 35.3280 146.0220 277° West 446 513 39,000  Level ACARS Aircraft Datalink
02:50AM 35.4738 144.9433 281° West  Level FlightAware Approximate
02:52AM 35.3739 145.5965 280° West  Level FlightAware Approximate
02:53AM 35.3944 145.4551 280° West  Level FlightAware Approximate
02:54AM 35.4162 145.3139 281° West  Level FlightAware Approximate
02:55AM 35.4383 145.1728 281° West  Level FlightAware Approximate
02:56AM 35.4602 145.0316 281° West  Level FlightAware Approximate
02:57AM 35.4819 144.8904 281° West  Level FlightAware Approximate
02:58AM 35.5035 144.7490 281° West  Level FlightAware Approximate
02:59AM 35.5249 144.6076 281° West  Level FlightAware Approximate
03:00AM 35.5462 144.4661 280° West  Level FlightAware Approximate
03:01AM 35.5673 144.3245 280° West  Level FlightAware Approximate
03:02AM 35.5882 144.1829 280° West  Level FlightAware Approximate
03:03AM 35.6089 144.0411 280° West  Level FlightAware Approximate
03:03AM 35.4240 143.8220 280° West 429 494 38,000  Level FlightAware
03:04AM 35.4340 143.7310 278° West 428 493 38,000  Level FlightAware
03:05AM 35.4480 143.6060 278° West 427 491 38,000  Level FlightAware
03:06AM 35.4610 143.4860 278° West 425 489 38,000  Level FlightAware
03:06AM 35.4720 143.3860 278° West 424 488 38,000  Level FlightAware
03:07AM 35.4830 143.2910 278° West 424 488 38,000  Level FlightAware
03:08AM 35.4930 143.1940 277° West 423 487 38,000  Level FlightAware
03:08AM 35.5050 143.0860 278° West 423 487 38,000  Level FlightAware
03:09AM 35.5150 142.9910 277° West 423 487 38,000  Level FlightAware
03:10AM 35.5230 142.9130 277° West 422 486 38,000  Level FlightAware
03:10AM 35.5360 142.7900 277° West 424 488 38,000  Level FlightAware
03:11AM 35.5470 142.6830 277° West 422 486 38,000  Level FlightAware
03:12AM 35.5570 142.5920 278° West 422 486 38,000  Level FlightAware
03:13AM 35.5740 142.4240 277° West 422 486 38,000  Level FlightAware
03:14AM 35.5880 142.2830 277° West 424 488 38,000  Level FlightAware
03:15AM 35.6060 142.0980 277° West 424 488 38,000  Level FlightAware
03:16AM 35.6230 141.9220 277° West 425 489 38,000  Level FlightAware
03:17AM 35.6340 141.8140 277° West 427 491 38,000  Level FlightAware
03:18AM 35.6430 141.7200 277° West 428 493 38,000  Level FlightAware
03:19AM 35.6510 141.6260 276° West 428 493 38,000  Level FlightAware
03:19AM 35.6620 141.5150 277° West 429 494 38,000  Level FlightAware
03:20AM 35.6700 141.4250 276° West 430 495 38,000  Level FlightAware
03:21AM 35.6810 141.3100 277° West 430 495 38,000  Level FlightAware
03:21AM 35.6890 141.2190 276° West 430 495 38,000  Level FlightAware
03:22AM 35.7000 141.0980 276° West 430 495 38,000  Level FlightAware
03:23AM 35.7090 141.0000 276° West 430 495 38,000  Level FlightAware
03:23AM 35.7180 140.9000 276° West 430 495 38,000  Level FlightAware
03:24AM 35.7270 140.7900 276° West 431 496 38,000  Level FlightAware
03:25AM 35.7350 140.6940 276° West 433 498 38,000  Level FlightAware
03:26AM 35.7440 140.5830 276° West 432 497 38,000  Level FlightAware
03:26AM 35.7510 140.4860 275° West 431 496 38,000  Level FlightAware
03:27AM 35.7600 140.3740 276° West 432 497 38,000  Level FlightAware
03:28AM 35.7580 140.2850 268° West 451 519 38,000  Level FlightAware
03:28AM 35.7370 140.1890 255° West 452 520 38,000  Level FlightAware
03:29AM 35.7170 140.0950 255° West 450 518 38,000  Level FlightAware
03:30AM 35.6930 139.9730 256° West 447 514 38,000  Level FlightAware
03:30AM 35.6780 139.8740 259° West 443 510 38,000  Level FlightAware
03:31AM 35.6650 139.7620 262° West 441 507 38,000  Level FlightAware
03:32AM 35.6550 139.6600 263° West 438 504 38,000  Level FlightAware
03:33AM 35.6440 139.5540 263° West 439 505 38,000  Level FlightAware
03:33AM 35.6330 139.4570 262° West 439 505 38,000  Level FlightAware
03:34AM 35.6230 139.3570 263° West 442 509 38,000  Level FlightAware
03:35AM 35.6100 139.2390 262° West 444 511 38,000  Level FlightAware
03:35AM 35.6000 139.1450 263° West 444 511 38,000  Level FlightAware
03:36AM 35.5870 139.0280 262° West 444 511 38,000  Level FlightAware
03:37AM 35.5760 138.9300 262° West 444 511 38,000  Level FlightAware
03:37AM 35.5650 138.8330 262° West 444 511 38,000  Level FlightAware
03:38AM 35.5520 138.7190 262° West 444 511 38,000  Level FlightAware
03:39AM 35.5410 138.6160 263° West 443 510 38,000  Level FlightAware
03:40AM 35.5280 138.5070 262° West 442 509 38,000  Level FlightAware
03:40AM 35.5170 138.4110 262° West 439 505 38,000  Level FlightAware
03:41AM 35.5060 138.3120 262° West 437 503 38,000  Level FlightAware
03:42AM 35.4930 138.2010 262° West 435 501 38,000  Level FlightAware
03:42AM 35.4810 138.1030 261° West 434 499 38,000  Level FlightAware
03:43AM 35.4680 137.9930 262° West 435 501 38,000  Level FlightAware
03:44AM 35.4570 137.8950 262° West 435 501 38,000  Level FlightAware
03:44AM 35.4450 137.7990 261° West 435 501 38,000  Level FlightAware
03:45AM 35.4320 137.6900 262° West 436 502 38,000  Level FlightAware
03:46AM 35.4200 137.5920 261° West 435 501 38,000  Level FlightAware
03:47AM 35.4070 137.4830 262° West 438 504 38,000  Level FlightAware
03:47AM 35.3940 137.3850 261° West 440 506 38,000  Level FlightAware
03:48AM 35.3810 137.2760 262° West 440 506 38,000  Level FlightAware
03:49AM 35.3680 137.1780 261° West 440 506 38,000  Level FlightAware
03:49AM 35.3560 137.0780 262° West 440 506 38,000  Level FlightAware
03:50AM 35.3420 136.9690 261° West 440 506 38,000  Level FlightAware
03:51AM 35.3290 136.8740 261° West 440 506 38,000  Level FlightAware
03:51AM 35.3170 136.7800 261° West 440 506 38,000  Level FlightAware
03:52AM 35.3020 136.6640 261° West 440 506 38,000  Level FlightAware
03:53AM 35.2900 136.5670 261° West 440 506 38,000  Level FlightAware
03:54AM 35.2760 136.4620 261° West 441 507 38,000  Level FlightAware
03:55AM 35.2580 136.3310 260° West 440 506 38,000  Level FlightAware
03:55AM 35.2440 136.2250 261° West 439 505 38,000  Level FlightAware
03:56AM 35.2290 136.1180 260° West 437 503 38,000  Level FlightAware
03:57AM 35.2140 136.0180 260° West 436 502 38,000  Level FlightAware
03:57AM 35.2000 135.9230 260° West 435 501 38,000  Level FlightAware
03:58AM 35.1840 135.8120 260° West 435 501 38,000  Level FlightAware
03:59AM 35.1690 135.7180 259° West 436 502 38,000  Level FlightAware
03:59AM 35.1500 135.6090 258° West 436 502 38,000  Level FlightAware
04:00AM 35.1340 135.5120 259° West 436 502 38,000  Level FlightAware
04:01AM 35.1170 135.4150 258° West 436 502 38,000  Level FlightAware
04:02AM 35.0990 135.3070 259° West 435 501 38,000  Level FlightAware
04:02AM 35.0830 135.2130 258° West 435 501 38,000  Level FlightAware
04:03AM 35.0660 135.1150 258° West 435 501 38,000  Level FlightAware
04:04AM 35.0450 135.0110 256° West 435 501 38,000  Level FlightAware
04:04AM 35.0250 134.9130 256° West 434 499 38,000  Level FlightAware
04:05AM 35.0050 134.8070 257° West 432 497 38,000  Level FlightAware
04:06AM 34.9870 134.7160 256° West 430 495 38,000  Level FlightAware
04:06AM 34.9690 134.6260 256° West 429 494 38,000  Level FlightAware
04:07AM 34.9450 134.5060 256° West 426 490 38,000  Level FlightAware
04:08AM 34.9260 134.4120 256° West 425 489 38,000  Level FlightAware
04:09AM 34.9060 134.3100 257° West 423 487 38,000  Level FlightAware
04:09AM 34.8870 134.2160 256° West 422 486 38,000  Level FlightAware
04:10AM 34.8680 134.1250 256° West 420 483 38,000  Level FlightAware
04:11AM 34.8470 134.0220 256° West 420 483 38,000  Level FlightAware
04:11AM 34.8290 133.9310 256° West 420 483 38,000  Level FlightAware
04:12AM 34.8110 133.8460 256° West 421 484 38,000  Level FlightAware
04:13AM 34.7880 133.7350 256° West 420 483 38,000  Level FlightAware
04:13AM 34.7690 133.6450 256° West 420 483 38,000  Level FlightAware
04:14AM 34.7490 133.5440 256° West 421 484 38,000  Level FlightAware
04:15AM 34.7230 133.4220 255° West 419 482 38,000  Level FlightAware
04:16AM 34.7020 133.3220 256° West 418 481 38,000  Level FlightAware
04:16AM 34.6860 133.2450 256° West 417 480 38,000  Level FlightAware
04:17AM 34.6610 133.1310 255° West 415 478 38,000  Level FlightAware
04:18AM 34.6430 133.0440 256° West 414 476 38,000  Level FlightAware
04:19AM 34.6220 132.9470 255° West 414 476 38,000  Level FlightAware
04:19AM 34.5980 132.8350 255° West 414 476 38,000 -240 Level FlightAware
04:20AM 34.5790 132.7450 256° West 418 481 37,700 -780 Descending FlightAware
04:21AM 34.5590 132.6550 255° West 417 480 37,000 -1,020 Descending FlightAware
04:21AM 34.5370 132.5510 256° West 415 478 36,300 -720 Descending FlightAware
04:22AM 34.5170 132.4610 255° West 419 482 36,000 -540 Descending FlightAware
04:23AM 34.4930 132.3540 255° West 432 497 35,600 -1,140 Descending FlightAware
04:23AM 34.4720 132.2580 255° West 444 511 34,400 -1,920 Descending FlightAware
04:24AM 34.4510 132.1630 255° West 440 506 33,100 -2,160 Descending FlightAware
04:25AM 34.4280 132.0590 255° West 425 489 31,400 -2,400 Descending FlightAware
04:26AM 34.4070 131.9650 255° West 418 481 29,700 -2,520 Descending FlightAware
04:26AM 34.3840 131.8640 255° West 419 482 27,900 -2,400 Descending FlightAware
04:27AM 34.3640 131.7710 255° West 432 497 26,300 -2,340 Descending FlightAware
04:28AM 34.3400 131.6650 255° West 440 506 24,600 -2,220 Descending FlightAware
04:28AM 34.3180 131.5690 255° West 438 504 23,200 -2,100 Descending FlightAware
04:29AM 34.2970 131.4760 255° West 431 496 21,800 -2,220 Descending FlightAware
04:30AM 34.2730 131.3730 254° West 407 468 20,100 -2,400 Descending FlightAware
04:30AM 34.2530 131.2860 254° West 392 451 18,400 -2,160 Descending FlightAware
04:31AM 34.2320 131.1930 255° West 367 422 17,100 -1,020 Descending FlightAware
04:32AM 34.2130 131.1170 253° West 346 398 17,000 -600 Descending FlightAware
04:33AM 34.1870 131.0460 246° West 345 397 16,300 -1,560 Descending FlightAware
04:33AM 34.1520 130.9710 241° Southwest 341 392 14,800 -2,100 Descending FlightAware
04:34AM 34.1220 130.9040 242° Southwest 339 390 13,400 -1,560 Descending FlightAware
04:35AM 34.0890 130.8300 242° Southwest 318 366 12,600 -1,020 Descending FlightAware
04:35AM 34.0620 130.7700 242° Southwest 299 344 12,000 -1,140 Descending FlightAware
04:36AM 34.0350 130.7110 241° Southwest 295 339 11,100 -1,440 Descending FlightAware
04:37AM 34.0070 130.6460 243° Southwest 293 337 10,000 -1,500 Descending FlightAware
04:37AM 33.9970 130.6240 241° Southwest 293 337 9,600 -1,380 Descending FlightAware
04:37AM 33.9820 130.5880 243° Southwest 290 334 9,100 -1,200 Descending FlightAware
04:38AM 33.9730 130.5680 242° Southwest 288 331 8,800 -1,200 Descending FlightAware
04:38AM 33.9500 130.5370 228° Southwest 283 326 8,300 -1,140 Descending FlightAware
04:39AM 33.9210 130.5060 222° Southwest 273 314 7,800 -960 Descending FlightAware
04:39AM 33.9070 130.4910 222° Southwest 269 310 7,600 -840 Descending FlightAware
04:39AM 33.8800 130.4620 222° Southwest 258 297 7,200 -780 Descending FlightAware
04:40AM 33.8580 130.4380 222° Southwest 238 274 6,900 -1,080 Descending FlightAware
04:40AM 33.8460 130.4250 222° Southwest 228 262 6,500 -1,980 Descending FlightAware
04:40AM 33.8280 130.4050 223° Southwest 229 264 5,600 -1,080 Descending FlightAware
04:41AM 33.8100 130.3870 220° Southwest 229 264 5,600 -600 Level FlightAware
04:41AM 33.8170 130.3940 40° Northeast 223 257 5,200 -1,500 Descending FlightAware
04:42AM 33.7960 130.3720 221° Southwest 208 239 4,600 -1,320 Descending FlightAware
04:42AM 33.7620 130.3470 211° Southwest 174 200 3,700 -1,140 Descending FlightAware
04:43AM 33.7440 130.3470 180° South 170 196 3,200 -1,020 Descending FlightAware
04:43AM 33.7160 130.3590 160° South 179 206 2,700 -1,140 Descending FlightAware
04:44AM 33.6920 130.3780 147° Southeast 173 199 2,100 -840 Descending FlightAware
04:44AM 33.6860 130.3820 151° Southeast 172 198 2,000 -720 Descending FlightAware
04:45AM 33.6640 130.3970 150° Southeast 162 186 1,500 -1,020 Descending FlightAware
04:45AM 33.6430 130.4110 151° Southeast 143 165 1,000 -900 Descending FlightAware
04:45AM 33.6410 130.4120 157° South 143 165 1,000 -600 Level FlightAware
04:46AM 33.6200 130.4270 149° Southeast 141 162 500 -480 Descending FlightAware
04:46AM 33.6070 130.4360 150° Southeast 141 162 500  Level FlightAware
04:49AM 33.5833 130.4500 212° Southwest  Level FlightAware Approximate